<?xml version="1.0" encoding="UTF-8" standalone="no" ?>
<gpx xmlns="http://www.topografix.com/GPX/1/1" xmlns:xsi="http://www.w3.org/2001/XMLSchema-instance" xsi:schemaLocation="http://www.topografix.com/GPX/1/1 http://www.topografix.com/GPX/1/1/gpx.xsd" version="1.1" creator="VisuGPX - https://www.visugpx.com">
  <metadata>
    <name>Saone Confluence Gerland Rhône_2</name>
    <desc><![CDATA[Parcours plat compatible avec tout mode de déplacement.]]></desc>
  </metadata>
  <trk>
    <name><![CDATA[Sequence 1]]></name>
    <trkseg>
      <trkpt lat="45.75422" lon="4.82806">
        <ele>208</ele>
        <time>2016-09-28T05:14:24Z</time>
      </trkpt>
      <trkpt lat="45.75419" lon="4.828">
        <ele>183</ele>
        <time>2016-09-28T05:14:29Z</time>
      </trkpt>
      <trkpt lat="45.75439" lon="4.82793">
        <ele>177</ele>
        <time>2016-09-28T05:14:41Z</time>
      </trkpt>
      <trkpt lat="45.75426" lon="4.82746">
        <ele>178</ele>
        <time>2016-09-28T05:14:54Z</time>
      </trkpt>
      <trkpt lat="45.7545" lon="4.8274">
        <ele>178</ele>
        <time>2016-09-28T05:15:07Z</time>
      </trkpt>
      <trkpt lat="45.75448" lon="4.82735">
        <ele>178</ele>
        <time>2016-09-28T05:15:10Z</time>
      </trkpt>
      <trkpt lat="45.75452" lon="4.82714">
        <ele>179</ele>
        <time>2016-09-28T05:15:20Z</time>
      </trkpt>
      <trkpt lat="45.75452" lon="4.82664">
        <ele>180</ele>
        <time>2016-09-28T05:15:41Z</time>
      </trkpt>
      <trkpt lat="45.75451" lon="4.82651">
        <ele>179</ele>
        <time>2016-09-28T05:15:48Z</time>
      </trkpt>
      <trkpt lat="45.75419" lon="4.82642">
        <ele>180</ele>
        <time>2016-09-28T05:16:01Z</time>
      </trkpt>
      <trkpt lat="45.75424" lon="4.82615">
        <ele>170</ele>
        <time>2016-09-28T05:16:09Z</time>
      </trkpt>
      <trkpt lat="45.75398" lon="4.82614">
        <ele>179</ele>
        <time>2016-09-28T05:16:22Z</time>
      </trkpt>
      <trkpt lat="45.75398" lon="4.82614">
        <ele>182</ele>
        <time>2016-09-28T05:16:27Z</time>
      </trkpt>
      <trkpt lat="45.75408" lon="4.82585">
        <ele>174</ele>
        <time>2016-09-28T05:16:38Z</time>
      </trkpt>
      <trkpt lat="45.75426" lon="4.82541">
        <ele>172</ele>
        <time>2016-09-28T05:16:59Z</time>
      </trkpt>
      <trkpt lat="45.75425" lon="4.82538">
        <ele>170</ele>
        <time>2016-09-28T05:17:01Z</time>
      </trkpt>
      <trkpt lat="45.75398" lon="4.82529">
        <ele>176</ele>
        <time>2016-09-28T05:17:17Z</time>
      </trkpt>
      <trkpt lat="45.75378" lon="4.82524">
        <ele>172</ele>
        <time>2016-09-28T05:17:27Z</time>
      </trkpt>
      <trkpt lat="45.75356" lon="4.82515">
        <ele>165</ele>
        <time>2016-09-28T05:17:39Z</time>
      </trkpt>
      <trkpt lat="45.75345" lon="4.82511">
        <ele>164</ele>
        <time>2016-09-28T05:17:45Z</time>
      </trkpt>
      <trkpt lat="45.75335" lon="4.82491">
        <ele>171</ele>
        <time>2016-09-28T05:17:56Z</time>
      </trkpt>
      <trkpt lat="45.75319" lon="4.82483">
        <ele>168</ele>
        <time>2016-09-28T05:18:07Z</time>
      </trkpt>
      <trkpt lat="45.75288" lon="4.82471">
        <ele>167</ele>
        <time>2016-09-28T05:18:25Z</time>
      </trkpt>
      <trkpt lat="45.75274" lon="4.82461">
        <ele>165</ele>
        <time>2016-09-28T05:18:33Z</time>
      </trkpt>
      <trkpt lat="45.75245" lon="4.82448">
        <ele>165</ele>
        <time>2016-09-28T05:18:48Z</time>
      </trkpt>
      <trkpt lat="45.7524" lon="4.82445">
        <ele>165</ele>
        <time>2016-09-28T05:18:51Z</time>
      </trkpt>
      <trkpt lat="45.75212" lon="4.82427">
        <ele>167</ele>
        <time>2016-09-28T05:19:11Z</time>
      </trkpt>
      <trkpt lat="45.7521" lon="4.82424">
        <ele>168</ele>
        <time>2016-09-28T05:19:13Z</time>
      </trkpt>
      <trkpt lat="45.75194" lon="4.82401">
        <ele>167</ele>
        <time>2016-09-28T05:19:27Z</time>
      </trkpt>
      <trkpt lat="45.75182" lon="4.82392">
        <ele>169</ele>
        <time>2016-09-28T05:19:35Z</time>
      </trkpt>
      <trkpt lat="45.75158" lon="4.8237">
        <ele>171</ele>
        <time>2016-09-28T05:19:52Z</time>
      </trkpt>
      <trkpt lat="45.75141" lon="4.82355">
        <ele>170</ele>
        <time>2016-09-28T05:20:03Z</time>
      </trkpt>
      <trkpt lat="45.75131" lon="4.82335">
        <ele>169</ele>
        <time>2016-09-28T05:20:12Z</time>
      </trkpt>
      <trkpt lat="45.75122" lon="4.82324">
        <ele>168</ele>
        <time>2016-09-28T05:20:19Z</time>
      </trkpt>
      <trkpt lat="45.75099" lon="4.823">
        <ele>169</ele>
        <time>2016-09-28T05:20:40Z</time>
      </trkpt>
      <trkpt lat="45.75094" lon="4.82289">
        <ele>170</ele>
        <time>2016-09-28T05:20:44Z</time>
      </trkpt>
      <trkpt lat="45.75078" lon="4.82279">
        <ele>166</ele>
        <time>2016-09-28T05:20:53Z</time>
      </trkpt>
      <trkpt lat="45.75056" lon="4.82246">
        <ele>171</ele>
        <time>2016-09-28T05:21:09Z</time>
      </trkpt>
      <trkpt lat="45.75045" lon="4.82225">
        <ele>168</ele>
        <time>2016-09-28T05:21:19Z</time>
      </trkpt>
      <trkpt lat="45.75039" lon="4.82214">
        <ele>169</ele>
        <time>2016-09-28T05:21:25Z</time>
      </trkpt>
      <trkpt lat="45.75028" lon="4.82194">
        <ele>169</ele>
        <time>2016-09-28T05:21:36Z</time>
      </trkpt>
      <trkpt lat="45.74995" lon="4.8216">
        <ele>175</ele>
        <time>2016-09-28T05:21:57Z</time>
      </trkpt>
      <trkpt lat="45.74986" lon="4.8214">
        <ele>173</ele>
        <time>2016-09-28T05:22:06Z</time>
      </trkpt>
      <trkpt lat="45.74983" lon="4.82134">
        <ele>174</ele>
        <time>2016-09-28T05:22:09Z</time>
      </trkpt>
      <trkpt lat="45.74973" lon="4.82112">
        <ele>173</ele>
        <time>2016-09-28T05:22:20Z</time>
      </trkpt>
      <trkpt lat="45.74961" lon="4.82089">
        <ele>173</ele>
        <time>2016-09-28T05:22:31Z</time>
      </trkpt>
      <trkpt lat="45.74949" lon="4.8207">
        <ele>172</ele>
        <time>2016-09-28T05:22:42Z</time>
      </trkpt>
      <trkpt lat="45.74937" lon="4.82049">
        <ele>171</ele>
        <time>2016-09-28T05:22:53Z</time>
      </trkpt>
      <trkpt lat="45.74924" lon="4.82029">
        <ele>173</ele>
        <time>2016-09-28T05:23:04Z</time>
      </trkpt>
      <trkpt lat="45.7491" lon="4.82009">
        <ele>170</ele>
        <time>2016-09-28T05:23:15Z</time>
      </trkpt>
      <trkpt lat="45.74895" lon="4.81991">
        <ele>169</ele>
        <time>2016-09-28T05:23:26Z</time>
      </trkpt>
      <trkpt lat="45.74882" lon="4.81972">
        <ele>169</ele>
        <time>2016-09-28T05:23:37Z</time>
      </trkpt>
      <trkpt lat="45.74869" lon="4.81953">
        <ele>168</ele>
        <time>2016-09-28T05:23:48Z</time>
      </trkpt>
      <trkpt lat="45.74844" lon="4.8192">
        <ele>169</ele>
        <time>2016-09-28T05:24:07Z</time>
      </trkpt>
      <trkpt lat="45.74841" lon="4.81914">
        <ele>169</ele>
        <time>2016-09-28T05:24:10Z</time>
      </trkpt>
      <trkpt lat="45.74828" lon="4.81894">
        <ele>168</ele>
        <time>2016-09-28T05:24:21Z</time>
      </trkpt>
      <trkpt lat="45.74814" lon="4.81873">
        <ele>168</ele>
        <time>2016-09-28T05:24:32Z</time>
      </trkpt>
      <trkpt lat="45.74801" lon="4.81853">
        <ele>168</ele>
        <time>2016-09-28T05:24:43Z</time>
      </trkpt>
      <trkpt lat="45.74788" lon="4.81834">
        <ele>169</ele>
        <time>2016-09-28T05:24:54Z</time>
      </trkpt>
      <trkpt lat="45.74774" lon="4.81816">
        <ele>168</ele>
        <time>2016-09-28T05:25:05Z</time>
      </trkpt>
      <trkpt lat="45.74757" lon="4.81795">
        <ele>167</ele>
        <time>2016-09-28T05:25:18Z</time>
      </trkpt>
      <trkpt lat="45.74737" lon="4.81773">
        <ele>167</ele>
        <time>2016-09-28T05:25:31Z</time>
      </trkpt>
      <trkpt lat="45.74726" lon="4.81762">
        <ele>168</ele>
        <time>2016-09-28T05:25:38Z</time>
      </trkpt>
      <trkpt lat="45.74713" lon="4.81743">
        <ele>166</ele>
        <time>2016-09-28T05:25:49Z</time>
      </trkpt>
      <trkpt lat="45.74698" lon="4.81725">
        <ele>166</ele>
        <time>2016-09-28T05:26:00Z</time>
      </trkpt>
      <trkpt lat="45.74682" lon="4.81707">
        <ele>167</ele>
        <time>2016-09-28T05:26:12Z</time>
      </trkpt>
      <trkpt lat="45.74668" lon="4.81691">
        <ele>168</ele>
        <time>2016-09-28T05:26:22Z</time>
      </trkpt>
      <trkpt lat="45.74651" lon="4.81675">
        <ele>168</ele>
        <time>2016-09-28T05:26:33Z</time>
      </trkpt>
      <trkpt lat="45.74635" lon="4.81661">
        <ele>168</ele>
        <time>2016-09-28T05:26:44Z</time>
      </trkpt>
      <trkpt lat="45.7462" lon="4.81647">
        <ele>169</ele>
        <time>2016-09-28T05:26:55Z</time>
      </trkpt>
      <trkpt lat="45.74602" lon="4.81633">
        <ele>167</ele>
        <time>2016-09-28T05:27:06Z</time>
      </trkpt>
      <trkpt lat="45.74585" lon="4.81623">
        <ele>168</ele>
        <time>2016-09-28T05:27:17Z</time>
      </trkpt>
      <trkpt lat="45.74567" lon="4.81614">
        <ele>169</ele>
        <time>2016-09-28T05:27:28Z</time>
      </trkpt>
      <trkpt lat="45.74545" lon="4.81605">
        <ele>172</ele>
        <time>2016-09-28T05:27:41Z</time>
      </trkpt>
      <trkpt lat="45.74531" lon="4.81597">
        <ele>171</ele>
        <time>2016-09-28T05:27:50Z</time>
      </trkpt>
      <trkpt lat="45.74514" lon="4.81587">
        <ele>172</ele>
        <time>2016-09-28T05:28:01Z</time>
      </trkpt>
      <trkpt lat="45.74496" lon="4.81575">
        <ele>171</ele>
        <time>2016-09-28T05:28:12Z</time>
      </trkpt>
      <trkpt lat="45.74477" lon="4.81563">
        <ele>171</ele>
        <time>2016-09-28T05:28:24Z</time>
      </trkpt>
      <trkpt lat="45.7446" lon="4.8155">
        <ele>171</ele>
        <time>2016-09-28T05:28:35Z</time>
      </trkpt>
      <trkpt lat="45.74445" lon="4.81537">
        <ele>171</ele>
        <time>2016-09-28T05:28:46Z</time>
      </trkpt>
      <trkpt lat="45.74428" lon="4.81523">
        <ele>169</ele>
        <time>2016-09-28T05:28:57Z</time>
      </trkpt>
      <trkpt lat="45.74412" lon="4.8151">
        <ele>169</ele>
        <time>2016-09-28T05:29:08Z</time>
      </trkpt>
      <trkpt lat="45.74396" lon="4.81497">
        <ele>169</ele>
        <time>2016-09-28T05:29:19Z</time>
      </trkpt>
      <trkpt lat="45.74379" lon="4.8149">
        <ele>169</ele>
        <time>2016-09-28T05:29:30Z</time>
      </trkpt>
      <trkpt lat="45.74361" lon="4.81486">
        <ele>169</ele>
        <time>2016-09-28T05:29:41Z</time>
      </trkpt>
      <trkpt lat="45.74343" lon="4.81498">
        <ele>170</ele>
        <time>2016-09-28T05:29:53Z</time>
      </trkpt>
      <trkpt lat="45.74334" lon="4.81519">
        <ele>170</ele>
        <time>2016-09-28T05:30:03Z</time>
      </trkpt>
      <trkpt lat="45.74317" lon="4.81557">
        <ele>171</ele>
        <time>2016-09-28T05:30:21Z</time>
      </trkpt>
      <trkpt lat="45.74314" lon="4.81565">
        <ele>173</ele>
        <time>2016-09-28T05:30:25Z</time>
      </trkpt>
      <trkpt lat="45.74309" lon="4.81591">
        <ele>178</ele>
        <time>2016-09-28T05:30:36Z</time>
      </trkpt>
      <trkpt lat="45.74296" lon="4.81624">
        <ele>178</ele>
        <time>2016-09-28T05:30:51Z</time>
      </trkpt>
      <trkpt lat="45.74277" lon="4.8164">
        <ele>176</ele>
        <time>2016-09-28T05:31:03Z</time>
      </trkpt>
      <trkpt lat="45.74253" lon="4.81621">
        <ele>178</ele>
        <time>2016-09-28T05:31:16Z</time>
      </trkpt>
      <trkpt lat="45.74238" lon="4.81605">
        <ele>177</ele>
        <time>2016-09-28T05:31:27Z</time>
      </trkpt>
      <trkpt lat="45.74232" lon="4.81599">
        <ele>177</ele>
        <time>2016-09-28T05:31:31Z</time>
      </trkpt>
      <trkpt lat="45.74198" lon="4.81576">
        <ele>173</ele>
        <time>2016-09-28T05:31:51Z</time>
      </trkpt>
      <trkpt lat="45.74194" lon="4.81571">
        <ele>173</ele>
        <time>2016-09-28T05:31:54Z</time>
      </trkpt>
      <trkpt lat="45.74175" lon="4.81559">
        <ele>172</ele>
        <time>2016-09-28T05:32:06Z</time>
      </trkpt>
      <trkpt lat="45.74159" lon="4.81548">
        <ele>176</ele>
        <time>2016-09-28T05:32:16Z</time>
      </trkpt>
      <trkpt lat="45.74144" lon="4.81531">
        <ele>178</ele>
        <time>2016-09-28T05:32:27Z</time>
      </trkpt>
      <trkpt lat="45.7413" lon="4.81517">
        <ele>178</ele>
        <time>2016-09-28T05:32:37Z</time>
      </trkpt>
      <trkpt lat="45.74119" lon="4.81491">
        <ele>175</ele>
        <time>2016-09-28T05:32:50Z</time>
      </trkpt>
      <trkpt lat="45.7413" lon="4.81448">
        <ele>172</ele>
        <time>2016-09-28T05:33:08Z</time>
      </trkpt>
      <trkpt lat="45.74131" lon="4.81443">
        <ele>171</ele>
        <time>2016-09-28T05:33:10Z</time>
      </trkpt>
      <trkpt lat="45.74119" lon="4.81427">
        <ele>171</ele>
        <time>2016-09-28T05:33:22Z</time>
      </trkpt>
      <trkpt lat="45.74101" lon="4.81424">
        <ele>170</ele>
        <time>2016-09-28T05:33:33Z</time>
      </trkpt>
      <trkpt lat="45.74083" lon="4.81421">
        <ele>171</ele>
        <time>2016-09-28T05:33:44Z</time>
      </trkpt>
      <trkpt lat="45.74064" lon="4.81422">
        <ele>172</ele>
        <time>2016-09-28T05:33:54Z</time>
      </trkpt>
      <trkpt lat="45.7404" lon="4.81419">
        <ele>169</ele>
        <time>2016-09-28T05:34:09Z</time>
      </trkpt>
      <trkpt lat="45.74024" lon="4.81414">
        <ele>170</ele>
        <time>2016-09-28T05:34:19Z</time>
      </trkpt>
      <trkpt lat="45.74013" lon="4.81412">
        <ele>170</ele>
        <time>2016-09-28T05:34:28Z</time>
      </trkpt>
      <trkpt lat="45.73992" lon="4.81417">
        <ele>174</ele>
        <time>2016-09-28T05:34:38Z</time>
      </trkpt>
      <trkpt lat="45.73959" lon="4.81423">
        <ele>177</ele>
        <time>2016-09-28T05:34:55Z</time>
      </trkpt>
      <trkpt lat="45.73951" lon="4.81423">
        <ele>176</ele>
        <time>2016-09-28T05:35:00Z</time>
      </trkpt>
      <trkpt lat="45.73926" lon="4.81431">
        <ele>173</ele>
        <time>2016-09-28T05:35:17Z</time>
      </trkpt>
      <trkpt lat="45.73917" lon="4.81432">
        <ele>174</ele>
        <time>2016-09-28T05:35:22Z</time>
      </trkpt>
      <trkpt lat="45.73885" lon="4.81444">
        <ele>172</ele>
        <time>2016-09-28T05:35:42Z</time>
      </trkpt>
      <trkpt lat="45.73879" lon="4.81444">
        <ele>173</ele>
        <time>2016-09-28T05:35:45Z</time>
      </trkpt>
      <trkpt lat="45.73856" lon="4.81445">
        <ele>173</ele>
        <time>2016-09-28T05:35:58Z</time>
      </trkpt>
      <trkpt lat="45.73832" lon="4.81449">
        <ele>171</ele>
        <time>2016-09-28T05:36:11Z</time>
      </trkpt>
      <trkpt lat="45.73822" lon="4.81451">
        <ele>171</ele>
        <time>2016-09-28T05:36:17Z</time>
      </trkpt>
      <trkpt lat="45.73786" lon="4.8146">
        <ele>175</ele>
        <time>2016-09-28T05:36:38Z</time>
      </trkpt>
      <trkpt lat="45.73775" lon="4.81461">
        <ele>177</ele>
        <time>2016-09-28T05:36:44Z</time>
      </trkpt>
      <trkpt lat="45.73764" lon="4.81462">
        <ele>176</ele>
        <time>2016-09-28T05:36:50Z</time>
      </trkpt>
      <trkpt lat="45.73734" lon="4.81469">
        <ele>175</ele>
        <time>2016-09-28T05:37:08Z</time>
      </trkpt>
      <trkpt lat="45.73727" lon="4.81469">
        <ele>176</ele>
        <time>2016-09-28T05:37:12Z</time>
      </trkpt>
      <trkpt lat="45.73708" lon="4.81474">
        <ele>180</ele>
        <time>2016-09-28T05:37:23Z</time>
      </trkpt>
      <trkpt lat="45.73678" lon="4.81481">
        <ele>181</ele>
        <time>2016-09-28T05:37:40Z</time>
      </trkpt>
      <trkpt lat="45.73668" lon="4.81484">
        <ele>181</ele>
        <time>2016-09-28T05:37:46Z</time>
      </trkpt>
      <trkpt lat="45.73641" lon="4.81489">
        <ele>179</ele>
        <time>2016-09-28T05:38:03Z</time>
      </trkpt>
      <trkpt lat="45.73635" lon="4.8149">
        <ele>174</ele>
        <time>2016-09-28T05:38:07Z</time>
      </trkpt>
      <trkpt lat="45.7361" lon="4.81494">
        <ele>176</ele>
        <time>2016-09-28T05:38:22Z</time>
      </trkpt>
      <trkpt lat="45.73585" lon="4.81497">
        <ele>173</ele>
        <time>2016-09-28T05:38:37Z</time>
      </trkpt>
      <trkpt lat="45.7358" lon="4.81498">
        <ele>173</ele>
        <time>2016-09-28T05:38:40Z</time>
      </trkpt>
      <trkpt lat="45.73545" lon="4.81506">
        <ele>177</ele>
        <time>2016-09-28T05:39:01Z</time>
      </trkpt>
      <trkpt lat="45.73537" lon="4.81508">
        <ele>179</ele>
        <time>2016-09-28T05:39:05Z</time>
      </trkpt>
      <trkpt lat="45.73521" lon="4.81513">
        <ele>177</ele>
        <time>2016-09-28T05:39:14Z</time>
      </trkpt>
      <trkpt lat="45.73491" lon="4.81517">
        <ele>173</ele>
        <time>2016-09-28T05:39:34Z</time>
      </trkpt>
      <trkpt lat="45.73475" lon="4.81523">
        <ele>178</ele>
        <time>2016-09-28T05:39:43Z</time>
      </trkpt>
      <trkpt lat="45.7346" lon="4.81528">
        <ele>180</ele>
        <time>2016-09-28T05:39:50Z</time>
      </trkpt>
      <trkpt lat="45.73448" lon="4.81534">
        <ele>179</ele>
        <time>2016-09-28T05:39:57Z</time>
      </trkpt>
      <trkpt lat="45.73423" lon="4.81543">
        <ele>181</ele>
        <time>2016-09-28T05:40:13Z</time>
      </trkpt>
      <trkpt lat="45.73414" lon="4.81544">
        <ele>181</ele>
        <time>2016-09-28T05:40:19Z</time>
      </trkpt>
      <trkpt lat="45.73389" lon="4.81545">
        <ele>181</ele>
        <time>2016-09-28T05:40:39Z</time>
      </trkpt>
      <trkpt lat="45.73383" lon="4.81546">
        <ele>182</ele>
        <time>2016-09-28T05:40:41Z</time>
      </trkpt>
      <trkpt lat="45.73367" lon="4.81554">
        <ele>179</ele>
        <time>2016-09-28T05:40:52Z</time>
      </trkpt>
      <trkpt lat="45.73323" lon="4.81563">
        <ele>182</ele>
        <time>2016-09-28T05:41:09Z</time>
      </trkpt>
      <trkpt lat="45.73303" lon="4.81564">
        <ele>175</ele>
        <time>2016-09-28T05:41:24Z</time>
      </trkpt>
      <trkpt lat="45.73301" lon="4.81564">
        <ele>175</ele>
        <time>2016-09-28T05:41:26Z</time>
      </trkpt>
      <trkpt lat="45.73282" lon="4.81569">
        <ele>177</ele>
        <time>2016-09-28T05:41:39Z</time>
      </trkpt>
      <trkpt lat="45.73252" lon="4.81574">
        <ele>175</ele>
        <time>2016-09-28T05:41:55Z</time>
      </trkpt>
      <trkpt lat="45.73247" lon="4.81574">
        <ele>173</ele>
        <time>2016-09-28T05:41:58Z</time>
      </trkpt>
      <trkpt lat="45.73217" lon="4.81593">
        <ele>173</ele>
        <time>2016-09-28T05:42:18Z</time>
      </trkpt>
      <trkpt lat="45.73215" lon="4.81597">
        <ele>172</ele>
        <time>2016-09-28T05:42:20Z</time>
      </trkpt>
      <trkpt lat="45.73204" lon="4.81612">
        <ele>170</ele>
        <time>2016-09-28T05:42:31Z</time>
      </trkpt>
      <trkpt lat="45.73198" lon="4.81634">
        <ele>171</ele>
        <time>2016-09-28T05:42:42Z</time>
      </trkpt>
      <trkpt lat="45.7318" lon="4.8168">
        <ele>167</ele>
        <time>2016-09-28T05:43:02Z</time>
      </trkpt>
      <trkpt lat="45.73168" lon="4.81698">
        <ele>166</ele>
        <time>2016-09-28T05:43:12Z</time>
      </trkpt>
      <trkpt lat="45.73156" lon="4.81708">
        <ele>167</ele>
        <time>2016-09-28T05:43:18Z</time>
      </trkpt>
      <trkpt lat="45.73137" lon="4.81728">
        <ele>166</ele>
        <time>2016-09-28T05:43:31Z</time>
      </trkpt>
      <trkpt lat="45.73122" lon="4.81747">
        <ele>164</ele>
        <time>2016-09-28T05:43:44Z</time>
      </trkpt>
      <trkpt lat="45.73109" lon="4.81758">
        <ele>164</ele>
        <time>2016-09-28T05:43:53Z</time>
      </trkpt>
      <trkpt lat="45.73093" lon="4.81769">
        <ele>165</ele>
        <time>2016-09-28T05:44:04Z</time>
      </trkpt>
      <trkpt lat="45.7306" lon="4.8179">
        <ele>164</ele>
        <time>2016-09-28T05:44:25Z</time>
      </trkpt>
      <trkpt lat="45.73058" lon="4.81791">
        <ele>164</ele>
        <time>2016-09-28T05:44:26Z</time>
      </trkpt>
      <trkpt lat="45.7304" lon="4.81802">
        <ele>165</ele>
        <time>2016-09-28T05:44:37Z</time>
      </trkpt>
      <trkpt lat="45.73017" lon="4.81811">
        <ele>161</ele>
        <time>2016-09-28T05:44:52Z</time>
      </trkpt>
      <trkpt lat="45.73004" lon="4.81814">
        <ele>160</ele>
        <time>2016-09-28T05:44:59Z</time>
      </trkpt>
      <trkpt lat="45.72985" lon="4.81821">
        <ele>164</ele>
        <time>2016-09-28T05:45:10Z</time>
      </trkpt>
      <trkpt lat="45.72964" lon="4.81827">
        <ele>163</ele>
        <time>2016-09-28T05:45:22Z</time>
      </trkpt>
      <trkpt lat="45.7293" lon="4.81833">
        <ele>161</ele>
        <time>2016-09-28T05:45:42Z</time>
      </trkpt>
      <trkpt lat="45.72928" lon="4.81834">
        <ele>161</ele>
        <time>2016-09-28T05:45:43Z</time>
      </trkpt>
      <trkpt lat="45.7291" lon="4.81837">
        <ele>161</ele>
        <time>2016-09-28T05:45:54Z</time>
      </trkpt>
      <trkpt lat="45.72887" lon="4.81842">
        <ele>163</ele>
        <time>2016-09-28T05:46:08Z</time>
      </trkpt>
      <trkpt lat="45.7288" lon="4.81854">
        <ele>164</ele>
        <time>2016-09-28T05:46:16Z</time>
      </trkpt>
      <trkpt lat="45.729" lon="4.81854">
        <ele>167</ele>
        <time>2016-09-28T05:46:27Z</time>
      </trkpt>
      <trkpt lat="45.72919" lon="4.81854">
        <ele>166</ele>
        <time>2016-09-28T05:46:38Z</time>
      </trkpt>
      <trkpt lat="45.72949" lon="4.81853">
        <ele>165</ele>
        <time>2016-09-28T05:46:55Z</time>
      </trkpt>
      <trkpt lat="45.72968" lon="4.81854">
        <ele>168</ele>
        <time>2016-09-28T05:47:07Z</time>
      </trkpt>
      <trkpt lat="45.72976" lon="4.81854">
        <ele>170</ele>
        <time>2016-09-28T05:47:11Z</time>
      </trkpt>
      <trkpt lat="45.72997" lon="4.81857">
        <ele>165</ele>
        <time>2016-09-28T05:47:22Z</time>
      </trkpt>
      <trkpt lat="45.73013" lon="4.81857">
        <ele>167</ele>
        <time>2016-09-28T05:47:33Z</time>
      </trkpt>
      <trkpt lat="45.73034" lon="4.81855">
        <ele>167</ele>
        <time>2016-09-28T05:47:46Z</time>
      </trkpt>
      <trkpt lat="45.73051" lon="4.81856">
        <ele>164</ele>
        <time>2016-09-28T05:47:55Z</time>
      </trkpt>
      <trkpt lat="45.73071" lon="4.81859">
        <ele>165</ele>
        <time>2016-09-28T05:48:06Z</time>
      </trkpt>
      <trkpt lat="45.73089" lon="4.8186">
        <ele>165</ele>
        <time>2016-09-28T05:48:17Z</time>
      </trkpt>
      <trkpt lat="45.73113" lon="4.81861">
        <ele>170</ele>
        <time>2016-09-28T05:48:31Z</time>
      </trkpt>
      <trkpt lat="45.73128" lon="4.81864">
        <ele>166</ele>
        <time>2016-09-28T05:48:40Z</time>
      </trkpt>
      <trkpt lat="45.73149" lon="4.8187">
        <ele>167</ele>
        <time>2016-09-28T05:48:53Z</time>
      </trkpt>
      <trkpt lat="45.73177" lon="4.81875">
        <ele>167</ele>
        <time>2016-09-28T05:49:06Z</time>
      </trkpt>
      <trkpt lat="45.73197" lon="4.81877">
        <ele>169</ele>
        <time>2016-09-28T05:49:20Z</time>
      </trkpt>
      <trkpt lat="45.73204" lon="4.81877">
        <ele>169</ele>
        <time>2016-09-28T05:49:24Z</time>
      </trkpt>
      <trkpt lat="45.73216" lon="4.81877">
        <ele>171</ele>
        <time>2016-09-28T05:49:34Z</time>
      </trkpt>
      <trkpt lat="45.73228" lon="4.81876">
        <ele>173</ele>
        <time>2016-09-28T05:49:45Z</time>
      </trkpt>
      <trkpt lat="45.7325" lon="4.81877">
        <ele>172</ele>
        <time>2016-09-28T05:49:57Z</time>
      </trkpt>
      <trkpt lat="45.73282" lon="4.81871">
        <ele>171</ele>
        <time>2016-09-28T05:50:15Z</time>
      </trkpt>
      <trkpt lat="45.73303" lon="4.81869">
        <ele>172</ele>
        <time>2016-09-28T05:50:27Z</time>
      </trkpt>
      <trkpt lat="45.73307" lon="4.8187">
        <ele>171</ele>
        <time>2016-09-28T05:50:29Z</time>
      </trkpt>
      <trkpt lat="45.7333" lon="4.8188">
        <ele>177</ele>
        <time>2016-09-28T05:50:43Z</time>
      </trkpt>
      <trkpt lat="45.73348" lon="4.81903">
        <ele>173</ele>
        <time>2016-09-28T05:50:57Z</time>
      </trkpt>
      <trkpt lat="45.73344" lon="4.81923">
        <ele>172</ele>
        <time>2016-09-28T05:51:05Z</time>
      </trkpt>
      <trkpt lat="45.73327" lon="4.8196">
        <ele>174</ele>
        <time>2016-09-28T05:51:23Z</time>
      </trkpt>
      <trkpt lat="45.73326" lon="4.81962">
        <ele>174</ele>
        <time>2016-09-28T05:51:24Z</time>
      </trkpt>
      <trkpt lat="45.73311" lon="4.8198">
        <ele>176</ele>
        <time>2016-09-28T05:51:35Z</time>
      </trkpt>
      <trkpt lat="45.73286" lon="4.82013">
        <ele>179</ele>
        <time>2016-09-28T05:51:56Z</time>
      </trkpt>
      <trkpt lat="45.73284" lon="4.82015">
        <ele>179</ele>
        <time>2016-09-28T05:51:57Z</time>
      </trkpt>
      <trkpt lat="45.7327" lon="4.82034">
        <ele>181</ele>
        <time>2016-09-28T05:52:08Z</time>
      </trkpt>
      <trkpt lat="45.73255" lon="4.8205">
        <ele>179</ele>
        <time>2016-09-28T05:52:19Z</time>
      </trkpt>
      <trkpt lat="45.7324" lon="4.82068">
        <ele>180</ele>
        <time>2016-09-28T05:52:30Z</time>
      </trkpt>
      <trkpt lat="45.73219" lon="4.82098">
        <ele>175</ele>
        <time>2016-09-28T05:52:47Z</time>
      </trkpt>
      <trkpt lat="45.73213" lon="4.82107">
        <ele>175</ele>
        <time>2016-09-28T05:52:52Z</time>
      </trkpt>
      <trkpt lat="45.73193" lon="4.82134">
        <ele>176</ele>
        <time>2016-09-28T05:53:07Z</time>
      </trkpt>
      <trkpt lat="45.73187" lon="4.82149">
        <ele>175</ele>
        <time>2016-09-28T05:53:14Z</time>
      </trkpt>
      <trkpt lat="45.73182" lon="4.82174">
        <ele>173</ele>
        <time>2016-09-28T05:53:26Z</time>
      </trkpt>
      <trkpt lat="45.73172" lon="4.8222">
        <ele>167</ele>
        <time>2016-09-28T05:53:45Z</time>
      </trkpt>
      <trkpt lat="45.73159" lon="4.82215">
        <ele>168</ele>
        <time>2016-09-28T05:53:55Z</time>
      </trkpt>
      <trkpt lat="45.73138" lon="4.82201">
        <ele>170</ele>
        <time>2016-09-28T05:54:08Z</time>
      </trkpt>
      <trkpt lat="45.73136" lon="4.82199">
        <ele>171</ele>
        <time>2016-09-28T05:54:09Z</time>
      </trkpt>
      <trkpt lat="45.73105" lon="4.82176">
        <ele>169</ele>
        <time>2016-09-28T05:54:29Z</time>
      </trkpt>
      <trkpt lat="45.73102" lon="4.82173">
        <ele>170</ele>
        <time>2016-09-28T05:54:31Z</time>
      </trkpt>
      <trkpt lat="45.73083" lon="4.82165">
        <ele>172</ele>
        <time>2016-09-28T05:54:42Z</time>
      </trkpt>
      <trkpt lat="45.73061" lon="4.8216">
        <ele>172</ele>
        <time>2016-09-28T05:54:56Z</time>
      </trkpt>
      <trkpt lat="45.73046" lon="4.82164">
        <ele>174</ele>
        <time>2016-09-28T05:55:04Z</time>
      </trkpt>
      <trkpt lat="45.73022" lon="4.82169">
        <ele>173</ele>
        <time>2016-09-28T05:55:18Z</time>
      </trkpt>
      <trkpt lat="45.72992" lon="4.82171">
        <ele>172</ele>
        <time>2016-09-28T05:55:36Z</time>
      </trkpt>
      <trkpt lat="45.7299" lon="4.8217">
        <ele>172</ele>
        <time>2016-09-28T05:55:37Z</time>
      </trkpt>
      <trkpt lat="45.72957" lon="4.82156">
        <ele>173</ele>
        <time>2016-09-28T05:55:57Z</time>
      </trkpt>
      <trkpt lat="45.72954" lon="4.82153">
        <ele>175</ele>
        <time>2016-09-28T05:55:59Z</time>
      </trkpt>
      <trkpt lat="45.72937" lon="4.82127">
        <ele>169</ele>
        <time>2016-09-28T05:56:13Z</time>
      </trkpt>
      <trkpt lat="45.7293" lon="4.82112">
        <ele>169</ele>
        <time>2016-09-28T05:56:21Z</time>
      </trkpt>
      <trkpt lat="45.72913" lon="4.82097">
        <ele>170</ele>
        <time>2016-09-28T05:56:32Z</time>
      </trkpt>
      <trkpt lat="45.72895" lon="4.82098">
        <ele>167</ele>
        <time>2016-09-28T05:56:43Z</time>
      </trkpt>
      <trkpt lat="45.72875" lon="4.82092">
        <ele>171</ele>
        <time>2016-09-28T05:56:55Z</time>
      </trkpt>
      <trkpt lat="45.72855" lon="4.82101">
        <ele>172</ele>
        <time>2016-09-28T05:57:08Z</time>
      </trkpt>
      <trkpt lat="45.72838" lon="4.82101">
        <ele>172</ele>
        <time>2016-09-28T05:57:16Z</time>
      </trkpt>
      <trkpt lat="45.72803" lon="4.82089">
        <ele>177</ele>
        <time>2016-09-28T05:57:36Z</time>
      </trkpt>
      <trkpt lat="45.728" lon="4.82087">
        <ele>177</ele>
        <time>2016-09-28T05:57:38Z</time>
      </trkpt>
      <trkpt lat="45.72781" lon="4.82084">
        <ele>178</ele>
        <time>2016-09-28T05:57:50Z</time>
      </trkpt>
      <trkpt lat="45.7276" lon="4.82094">
        <ele>177</ele>
        <time>2016-09-28T05:58:02Z</time>
      </trkpt>
      <trkpt lat="45.72742" lon="4.82093">
        <ele>180</ele>
        <time>2016-09-28T05:58:11Z</time>
      </trkpt>
      <trkpt lat="45.72716" lon="4.82088">
        <ele>186</ele>
        <time>2016-09-28T05:58:25Z</time>
      </trkpt>
      <trkpt lat="45.72693" lon="4.82092">
        <ele>186</ele>
        <time>2016-09-28T05:58:37Z</time>
      </trkpt>
      <trkpt lat="45.72671" lon="4.82085">
        <ele>173</ele>
        <time>2016-09-28T05:58:52Z</time>
      </trkpt>
      <trkpt lat="45.72668" lon="4.82083">
        <ele>174</ele>
        <time>2016-09-28T05:58:55Z</time>
      </trkpt>
      <trkpt lat="45.72645" lon="4.82073">
        <ele>170</ele>
        <time>2016-09-28T05:59:12Z</time>
      </trkpt>
      <trkpt lat="45.72622" lon="4.82081">
        <ele>167</ele>
        <time>2016-09-28T05:59:25Z</time>
      </trkpt>
      <trkpt lat="45.72616" lon="4.82082">
        <ele>167</ele>
        <time>2016-09-28T05:59:28Z</time>
      </trkpt>
      <trkpt lat="45.72598" lon="4.8208">
        <ele>166</ele>
        <time>2016-09-28T05:59:39Z</time>
      </trkpt>
      <trkpt lat="45.72569" lon="4.82084">
        <ele>167</ele>
        <time>2016-09-28T05:59:56Z</time>
      </trkpt>
      <trkpt lat="45.72557" lon="4.82087">
        <ele>167</ele>
        <time>2016-09-28T06:00:03Z</time>
      </trkpt>
      <trkpt lat="45.72533" lon="4.82103">
        <ele>167</ele>
        <time>2016-09-28T06:00:20Z</time>
      </trkpt>
      <trkpt lat="45.7251" lon="4.82101">
        <ele>166</ele>
        <time>2016-09-28T06:00:32Z</time>
      </trkpt>
      <trkpt lat="45.72507" lon="4.82101">
        <ele>165</ele>
        <time>2016-09-28T06:00:34Z</time>
      </trkpt>
      <trkpt lat="45.72486" lon="4.82109">
        <ele>170</ele>
        <time>2016-09-28T06:00:46Z</time>
      </trkpt>
      <trkpt lat="45.72466" lon="4.82113">
        <ele>168</ele>
        <time>2016-09-28T06:00:57Z</time>
      </trkpt>
      <trkpt lat="45.7245" lon="4.82115">
        <ele>166</ele>
        <time>2016-09-28T06:01:07Z</time>
      </trkpt>
      <trkpt lat="45.72419" lon="4.82118">
        <ele>170</ele>
        <time>2016-09-28T06:01:23Z</time>
      </trkpt>
      <trkpt lat="45.72406" lon="4.82119">
        <ele>168</ele>
        <time>2016-09-28T06:01:31Z</time>
      </trkpt>
      <trkpt lat="45.72392" lon="4.82124">
        <ele>167</ele>
        <time>2016-09-28T06:01:40Z</time>
      </trkpt>
      <trkpt lat="45.72361" lon="4.82136">
        <ele>169</ele>
        <time>2016-09-28T06:01:59Z</time>
      </trkpt>
      <trkpt lat="45.72349" lon="4.82138">
        <ele>169</ele>
        <time>2016-09-28T06:02:05Z</time>
      </trkpt>
      <trkpt lat="45.72336" lon="4.82141">
        <ele>165</ele>
        <time>2016-09-28T06:02:13Z</time>
      </trkpt>
      <trkpt lat="45.72296" lon="4.82151">
        <ele>168</ele>
        <time>2016-09-28T06:02:34Z</time>
      </trkpt>
      <trkpt lat="45.72293" lon="4.82152">
        <ele>167</ele>
        <time>2016-09-28T06:02:36Z</time>
      </trkpt>
      <trkpt lat="45.72278" lon="4.82154">
        <ele>167</ele>
        <time>2016-09-28T06:02:46Z</time>
      </trkpt>
      <trkpt lat="45.72257" lon="4.8216">
        <ele>170</ele>
        <time>2016-09-28T06:02:58Z</time>
      </trkpt>
      <trkpt lat="45.72238" lon="4.82164">
        <ele>172</ele>
        <time>2016-09-28T06:03:08Z</time>
      </trkpt>
      <trkpt lat="45.72218" lon="4.82168">
        <ele>171</ele>
        <time>2016-09-28T06:03:19Z</time>
      </trkpt>
      <trkpt lat="45.72183" lon="4.82176">
        <ele>169</ele>
        <time>2016-09-28T06:03:40Z</time>
      </trkpt>
      <trkpt lat="45.72182" lon="4.82177">
        <ele>170</ele>
        <time>2016-09-28T06:03:41Z</time>
      </trkpt>
      <trkpt lat="45.72161" lon="4.82182">
        <ele>171</ele>
        <time>2016-09-28T06:03:53Z</time>
      </trkpt>
      <trkpt lat="45.72127" lon="4.82188">
        <ele>173</ele>
        <time>2016-09-28T06:04:12Z</time>
      </trkpt>
      <trkpt lat="45.72123" lon="4.82188">
        <ele>172</ele>
        <time>2016-09-28T06:04:15Z</time>
      </trkpt>
      <trkpt lat="45.72088" lon="4.82194">
        <ele>169</ele>
        <time>2016-09-28T06:04:35Z</time>
      </trkpt>
      <trkpt lat="45.72086" lon="4.82194">
        <ele>169</ele>
        <time>2016-09-28T06:04:36Z</time>
      </trkpt>
      <trkpt lat="45.72052" lon="4.82206">
        <ele>168</ele>
        <time>2016-09-28T06:04:55Z</time>
      </trkpt>
      <trkpt lat="45.72051" lon="4.82223">
        <ele>167</ele>
        <time>2016-09-28T06:05:02Z</time>
      </trkpt>
      <trkpt lat="45.7205" lon="4.82247">
        <ele>168</ele>
        <time>2016-09-28T06:05:12Z</time>
      </trkpt>
      <trkpt lat="45.72047" lon="4.82267">
        <ele>169</ele>
        <time>2016-09-28T06:05:20Z</time>
      </trkpt>
      <trkpt lat="45.72037" lon="4.82307">
        <ele>170</ele>
        <time>2016-09-28T06:05:37Z</time>
      </trkpt>
      <trkpt lat="45.72033" lon="4.82318">
        <ele>170</ele>
        <time>2016-09-28T06:05:42Z</time>
      </trkpt>
      <trkpt lat="45.72024" lon="4.82342">
        <ele>172</ele>
        <time>2016-09-28T06:05:53Z</time>
      </trkpt>
      <trkpt lat="45.72031" lon="4.82368">
        <ele>172</ele>
        <time>2016-09-28T06:06:04Z</time>
      </trkpt>
      <trkpt lat="45.72059" lon="4.82405">
        <ele>171</ele>
        <time>2016-09-28T06:06:25Z</time>
      </trkpt>
      <trkpt lat="45.72069" lon="4.82423">
        <ele>171</ele>
        <time>2016-09-28T06:06:34Z</time>
      </trkpt>
      <trkpt lat="45.7207" lon="4.82429">
        <ele>171</ele>
        <time>2016-09-28T06:06:37Z</time>
      </trkpt>
      <trkpt lat="45.7209" lon="4.82456">
        <ele>174</ele>
        <time>2016-09-28T06:06:52Z</time>
      </trkpt>
      <trkpt lat="45.72097" lon="4.82469">
        <ele>175</ele>
        <time>2016-09-28T06:06:59Z</time>
      </trkpt>
      <trkpt lat="45.72112" lon="4.82491">
        <ele>174</ele>
        <time>2016-09-28T06:07:11Z</time>
      </trkpt>
      <trkpt lat="45.72121" lon="4.82509">
        <ele>172</ele>
        <time>2016-09-28T06:07:21Z</time>
      </trkpt>
      <trkpt lat="45.7214" lon="4.82544">
        <ele>171</ele>
        <time>2016-09-28T06:07:39Z</time>
      </trkpt>
      <trkpt lat="45.72147" lon="4.82557">
        <ele>169</ele>
        <time>2016-09-28T06:07:46Z</time>
      </trkpt>
      <trkpt lat="45.72155" lon="4.82571">
        <ele>168</ele>
        <time>2016-09-28T06:07:54Z</time>
      </trkpt>
      <trkpt lat="45.72173" lon="4.82555">
        <ele>169</ele>
        <time>2016-09-28T06:08:05Z</time>
      </trkpt>
      <trkpt lat="45.72194" lon="4.82529">
        <ele>168</ele>
        <time>2016-09-28T06:08:20Z</time>
      </trkpt>
      <trkpt lat="45.72204" lon="4.82518">
        <ele>168</ele>
        <time>2016-09-28T06:08:27Z</time>
      </trkpt>
      <trkpt lat="45.72219" lon="4.825">
        <ele>168</ele>
        <time>2016-09-28T06:08:38Z</time>
      </trkpt>
      <trkpt lat="45.7224" lon="4.82476">
        <ele>169</ele>
        <time>2016-09-28T06:08:53Z</time>
      </trkpt>
      <trkpt lat="45.72254" lon="4.82457">
        <ele>168</ele>
        <time>2016-09-28T06:09:04Z</time>
      </trkpt>
      <trkpt lat="45.72266" lon="4.8244">
        <ele>166</ele>
        <time>2016-09-28T06:09:14Z</time>
      </trkpt>
      <trkpt lat="45.72275" lon="4.82427">
        <ele>165</ele>
        <time>2016-09-28T06:09:22Z</time>
      </trkpt>
      <trkpt lat="45.72288" lon="4.82409">
        <ele>167</ele>
        <time>2016-09-28T06:09:33Z</time>
      </trkpt>
      <trkpt lat="45.72302" lon="4.82391">
        <ele>166</ele>
        <time>2016-09-28T06:09:44Z</time>
      </trkpt>
      <trkpt lat="45.72325" lon="4.82367">
        <ele>167</ele>
        <time>2016-09-28T06:10:00Z</time>
      </trkpt>
      <trkpt lat="45.72346" lon="4.82343">
        <ele>167</ele>
        <time>2016-09-28T06:10:16Z</time>
      </trkpt>
      <trkpt lat="45.72347" lon="4.82342">
        <ele>167</ele>
        <time>2016-09-28T06:10:17Z</time>
      </trkpt>
      <trkpt lat="45.72365" lon="4.82321">
        <ele>167</ele>
        <time>2016-09-28T06:10:30Z</time>
      </trkpt>
      <trkpt lat="45.72378" lon="4.82306">
        <ele>167</ele>
        <time>2016-09-28T06:10:39Z</time>
      </trkpt>
      <trkpt lat="45.72393" lon="4.8229">
        <ele>166</ele>
        <time>2016-09-28T06:10:50Z</time>
      </trkpt>
      <trkpt lat="45.72407" lon="4.8227">
        <ele>164</ele>
        <time>2016-09-28T06:11:01Z</time>
      </trkpt>
      <trkpt lat="45.72422" lon="4.82245">
        <ele>168</ele>
        <time>2016-09-28T06:11:14Z</time>
      </trkpt>
      <trkpt lat="45.72435" lon="4.82229">
        <ele>168</ele>
        <time>2016-09-28T06:11:24Z</time>
      </trkpt>
      <trkpt lat="45.72453" lon="4.8221">
        <ele>169</ele>
        <time>2016-09-28T06:11:37Z</time>
      </trkpt>
      <trkpt lat="45.72464" lon="4.82196">
        <ele>170</ele>
        <time>2016-09-28T06:11:45Z</time>
      </trkpt>
      <trkpt lat="45.72478" lon="4.82172">
        <ele>170</ele>
        <time>2016-09-28T06:11:58Z</time>
      </trkpt>
      <trkpt lat="45.7249" lon="4.82159">
        <ele>167</ele>
        <time>2016-09-28T06:12:07Z</time>
      </trkpt>
      <trkpt lat="45.72512" lon="4.82135">
        <ele>168</ele>
        <time>2016-09-28T06:12:24Z</time>
      </trkpt>
      <trkpt lat="45.72519" lon="4.82128">
        <ele>168</ele>
        <time>2016-09-28T06:12:29Z</time>
      </trkpt>
      <trkpt lat="45.72547" lon="4.82106">
        <ele>169</ele>
        <time>2016-09-28T06:12:47Z</time>
      </trkpt>
      <trkpt lat="45.72553" lon="4.82106">
        <ele>167</ele>
        <time>2016-09-28T06:12:51Z</time>
      </trkpt>
      <trkpt lat="45.7259" lon="4.82094">
        <ele>169</ele>
        <time>2016-09-28T06:13:11Z</time>
      </trkpt>
      <trkpt lat="45.72597" lon="4.82092">
        <ele>167</ele>
        <time>2016-09-28T06:13:16Z</time>
      </trkpt>
      <trkpt lat="45.72607" lon="4.8209">
        <ele>166</ele>
        <time>2016-09-28T06:13:24Z</time>
      </trkpt>
      <trkpt lat="45.72633" lon="4.82087">
        <ele>163</ele>
        <time>2016-09-28T06:13:35Z</time>
      </trkpt>
      <trkpt lat="45.72651" lon="4.82084">
        <ele>163</ele>
        <time>2016-09-28T06:13:46Z</time>
      </trkpt>
      <trkpt lat="45.72678" lon="4.8208">
        <ele>166</ele>
        <time>2016-09-28T06:14:01Z</time>
      </trkpt>
      <trkpt lat="45.72695" lon="4.82077">
        <ele>170</ele>
        <time>2016-09-28T06:14:11Z</time>
      </trkpt>
      <trkpt lat="45.72722" lon="4.82083">
        <ele>162</ele>
        <time>2016-09-28T06:14:25Z</time>
      </trkpt>
      <trkpt lat="45.72732" lon="4.82084">
        <ele>163</ele>
        <time>2016-09-28T06:14:30Z</time>
      </trkpt>
      <trkpt lat="45.72763" lon="4.82083">
        <ele>172</ele>
        <time>2016-09-28T06:14:49Z</time>
      </trkpt>
      <trkpt lat="45.72769" lon="4.82084">
        <ele>170</ele>
        <time>2016-09-28T06:14:53Z</time>
      </trkpt>
      <trkpt lat="45.7279" lon="4.82075">
        <ele>170</ele>
        <time>2016-09-28T06:15:05Z</time>
      </trkpt>
      <trkpt lat="45.72805" lon="4.82084">
        <ele>170</ele>
        <time>2016-09-28T06:15:14Z</time>
      </trkpt>
      <trkpt lat="45.72829" lon="4.82094">
        <ele>173</ele>
        <time>2016-09-28T06:15:28Z</time>
      </trkpt>
      <trkpt lat="45.72855" lon="4.82093">
        <ele>171</ele>
        <time>2016-09-28T06:15:45Z</time>
      </trkpt>
      <trkpt lat="45.72867" lon="4.82091">
        <ele>176</ele>
        <time>2016-09-28T06:15:51Z</time>
      </trkpt>
      <trkpt lat="45.72877" lon="4.82089">
        <ele>174</ele>
        <time>2016-09-28T06:15:58Z</time>
      </trkpt>
      <trkpt lat="45.72903" lon="4.82096">
        <ele>167</ele>
        <time>2016-09-28T06:16:13Z</time>
      </trkpt>
      <trkpt lat="45.72931" lon="4.82116">
        <ele>166</ele>
        <time>2016-09-28T06:16:30Z</time>
      </trkpt>
      <trkpt lat="45.72932" lon="4.82118">
        <ele>167</ele>
        <time>2016-09-28T06:16:31Z</time>
      </trkpt>
      <trkpt lat="45.72944" lon="4.82139">
        <ele>166</ele>
        <time>2016-09-28T06:16:42Z</time>
      </trkpt>
      <trkpt lat="45.72962" lon="4.82156">
        <ele>165</ele>
        <time>2016-09-28T06:16:55Z</time>
      </trkpt>
      <trkpt lat="45.72978" lon="4.82163">
        <ele>167</ele>
        <time>2016-09-28T06:17:04Z</time>
      </trkpt>
      <trkpt lat="45.73" lon="4.82165">
        <ele>167</ele>
        <time>2016-09-28T06:17:17Z</time>
      </trkpt>
      <trkpt lat="45.73018" lon="4.82163">
        <ele>167</ele>
        <time>2016-09-28T06:17:26Z</time>
      </trkpt>
      <trkpt lat="45.73049" lon="4.8215">
        <ele>167</ele>
        <time>2016-09-28T06:17:44Z</time>
      </trkpt>
      <trkpt lat="45.73059" lon="4.82147">
        <ele>166</ele>
        <time>2016-09-28T06:17:50Z</time>
      </trkpt>
      <trkpt lat="45.73074" lon="4.82136">
        <ele>166</ele>
        <time>2016-09-28T06:18:00Z</time>
      </trkpt>
      <trkpt lat="45.73104" lon="4.82123">
        <ele>171</ele>
        <time>2016-09-28T06:18:16Z</time>
      </trkpt>
      <trkpt lat="45.73114" lon="4.82119">
        <ele>170</ele>
        <time>2016-09-28T06:18:22Z</time>
      </trkpt>
      <trkpt lat="45.73142" lon="4.82116">
        <ele>166</ele>
        <time>2016-09-28T06:18:38Z</time>
      </trkpt>
      <trkpt lat="45.73153" lon="4.82117">
        <ele>167</ele>
        <time>2016-09-28T06:18:44Z</time>
      </trkpt>
      <trkpt lat="45.73172" lon="4.82121">
        <ele>165</ele>
        <time>2016-09-28T06:18:56Z</time>
      </trkpt>
      <trkpt lat="45.73192" lon="4.82128">
        <ele>162</ele>
        <time>2016-09-28T06:19:08Z</time>
      </trkpt>
      <trkpt lat="45.73217" lon="4.82135">
        <ele>165</ele>
        <time>2016-09-28T06:19:24Z</time>
      </trkpt>
      <trkpt lat="45.73222" lon="4.82136">
        <ele>164</ele>
        <time>2016-09-28T06:19:27Z</time>
      </trkpt>
      <trkpt lat="45.73242" lon="4.82151">
        <ele>161</ele>
        <time>2016-09-28T06:19:38Z</time>
      </trkpt>
      <trkpt lat="45.73269" lon="4.82166">
        <ele>163</ele>
        <time>2016-09-28T06:19:55Z</time>
      </trkpt>
      <trkpt lat="45.73288" lon="4.82177">
        <ele>163</ele>
        <time>2016-09-28T06:20:05Z</time>
      </trkpt>
      <trkpt lat="45.73336" lon="4.82196">
        <ele>156</ele>
        <time>2016-09-28T06:20:31Z</time>
      </trkpt>
      <trkpt lat="45.73347" lon="4.82188">
        <ele>157</ele>
        <time>2016-09-28T06:20:40Z</time>
      </trkpt>
      <trkpt lat="45.7336" lon="4.82188">
        <ele>159</ele>
        <time>2016-09-28T06:20:49Z</time>
      </trkpt>
      <trkpt lat="45.73373" lon="4.8219">
        <ele>160</ele>
        <time>2016-09-28T06:20:56Z</time>
      </trkpt>
      <trkpt lat="45.73398" lon="4.82194">
        <ele>163</ele>
        <time>2016-09-28T06:21:08Z</time>
      </trkpt>
      <trkpt lat="45.73415" lon="4.82196">
        <ele>159</ele>
        <time>2016-09-28T06:21:17Z</time>
      </trkpt>
      <trkpt lat="45.73435" lon="4.82196">
        <ele>165</ele>
        <time>2016-09-28T06:21:29Z</time>
      </trkpt>
      <trkpt lat="45.73466" lon="4.822">
        <ele>166</ele>
        <time>2016-09-28T06:21:45Z</time>
      </trkpt>
      <trkpt lat="45.73476" lon="4.82209">
        <ele>165</ele>
        <time>2016-09-28T06:21:52Z</time>
      </trkpt>
      <trkpt lat="45.73502" lon="4.82234">
        <ele>164</ele>
        <time>2016-09-28T06:22:09Z</time>
      </trkpt>
      <trkpt lat="45.73509" lon="4.82239">
        <ele>166</ele>
        <time>2016-09-28T06:22:14Z</time>
      </trkpt>
      <trkpt lat="45.7352" lon="4.8225">
        <ele>166</ele>
        <time>2016-09-28T06:22:23Z</time>
      </trkpt>
      <trkpt lat="45.7355" lon="4.82267">
        <ele>166</ele>
        <time>2016-09-28T06:22:42Z</time>
      </trkpt>
      <trkpt lat="45.73568" lon="4.82279">
        <ele>163</ele>
        <time>2016-09-28T06:22:52Z</time>
      </trkpt>
      <trkpt lat="45.73578" lon="4.82286">
        <ele>166</ele>
        <time>2016-09-28T06:22:58Z</time>
      </trkpt>
      <trkpt lat="45.73597" lon="4.823">
        <ele>169</ele>
        <time>2016-09-28T06:23:08Z</time>
      </trkpt>
      <trkpt lat="45.73622" lon="4.82317">
        <ele>164</ele>
        <time>2016-09-28T06:23:23Z</time>
      </trkpt>
      <trkpt lat="45.73629" lon="4.82325">
        <ele>160</ele>
        <time>2016-09-28T06:23:29Z</time>
      </trkpt>
      <trkpt lat="45.73644" lon="4.82338">
        <ele>159</ele>
        <time>2016-09-28T06:23:40Z</time>
      </trkpt>
      <trkpt lat="45.7366" lon="4.82348">
        <ele>161</ele>
        <time>2016-09-28T06:23:53Z</time>
      </trkpt>
      <trkpt lat="45.73676" lon="4.82354">
        <ele>164</ele>
        <time>2016-09-28T06:24:03Z</time>
      </trkpt>
      <trkpt lat="45.73707" lon="4.82372">
        <ele>166</ele>
        <time>2016-09-28T06:24:20Z</time>
      </trkpt>
      <trkpt lat="45.73722" lon="4.82385">
        <ele>165</ele>
        <time>2016-09-28T06:24:29Z</time>
      </trkpt>
      <trkpt lat="45.73731" lon="4.82394">
        <ele>165</ele>
        <time>2016-09-28T06:24:35Z</time>
      </trkpt>
      <trkpt lat="45.73749" lon="4.82408">
        <ele>161</ele>
        <time>2016-09-28T06:24:48Z</time>
      </trkpt>
      <trkpt lat="45.73771" lon="4.82424">
        <ele>156</ele>
        <time>2016-09-28T06:25:02Z</time>
      </trkpt>
      <trkpt lat="45.73793" lon="4.82444">
        <ele>164</ele>
        <time>2016-09-28T06:25:17Z</time>
      </trkpt>
      <trkpt lat="45.73797" lon="4.82445">
        <ele>166</ele>
        <time>2016-09-28T06:25:19Z</time>
      </trkpt>
      <trkpt lat="45.73815" lon="4.82458">
        <ele>164</ele>
        <time>2016-09-28T06:25:30Z</time>
      </trkpt>
      <trkpt lat="45.73844" lon="4.82491">
        <ele>158</ele>
        <time>2016-09-28T06:25:51Z</time>
      </trkpt>
      <trkpt lat="45.73845" lon="4.82492">
        <ele>157</ele>
        <time>2016-09-28T06:25:52Z</time>
      </trkpt>
      <trkpt lat="45.73866" lon="4.82509">
        <ele>160</ele>
        <time>2016-09-28T06:26:03Z</time>
      </trkpt>
      <trkpt lat="45.73891" lon="4.82526">
        <ele>164</ele>
        <time>2016-09-28T06:26:20Z</time>
      </trkpt>
      <trkpt lat="45.73907" lon="4.82538">
        <ele>166</ele>
        <time>2016-09-28T06:26:30Z</time>
      </trkpt>
      <trkpt lat="45.73919" lon="4.82547">
        <ele>168</ele>
        <time>2016-09-28T06:26:37Z</time>
      </trkpt>
      <trkpt lat="45.73938" lon="4.82565">
        <ele>159</ele>
        <time>2016-09-28T06:26:52Z</time>
      </trkpt>
      <trkpt lat="45.73949" lon="4.82577">
        <ele>161</ele>
        <time>2016-09-28T06:27:01Z</time>
      </trkpt>
      <trkpt lat="45.7398" lon="4.82593">
        <ele>173</ele>
        <time>2016-09-28T06:27:18Z</time>
      </trkpt>
      <trkpt lat="45.73994" lon="4.826">
        <ele>171</ele>
        <time>2016-09-28T06:27:25Z</time>
      </trkpt>
      <trkpt lat="45.74001" lon="4.8261">
        <ele>165</ele>
        <time>2016-09-28T06:27:31Z</time>
      </trkpt>
      <trkpt lat="45.74022" lon="4.82635">
        <ele>161</ele>
        <time>2016-09-28T06:27:48Z</time>
      </trkpt>
      <trkpt lat="45.74034" lon="4.82644">
        <ele>164</ele>
        <time>2016-09-28T06:27:55Z</time>
      </trkpt>
      <trkpt lat="45.74057" lon="4.82665">
        <ele>159</ele>
        <time>2016-09-28T06:28:11Z</time>
      </trkpt>
      <trkpt lat="45.7407" lon="4.82678">
        <ele>161</ele>
        <time>2016-09-28T06:28:19Z</time>
      </trkpt>
      <trkpt lat="45.74084" lon="4.82686">
        <ele>163</ele>
        <time>2016-09-28T06:28:26Z</time>
      </trkpt>
      <trkpt lat="45.74104" lon="4.82704">
        <ele>161</ele>
        <time>2016-09-28T06:28:40Z</time>
      </trkpt>
      <trkpt lat="45.74114" lon="4.82715">
        <ele>160</ele>
        <time>2016-09-28T06:28:48Z</time>
      </trkpt>
      <trkpt lat="45.74126" lon="4.82731">
        <ele>159</ele>
        <time>2016-09-28T06:29:00Z</time>
      </trkpt>
      <trkpt lat="45.74144" lon="4.82741">
        <ele>155</ele>
        <time>2016-09-28T06:29:10Z</time>
      </trkpt>
      <trkpt lat="45.74171" lon="4.82762">
        <ele>157</ele>
        <time>2016-09-28T06:29:26Z</time>
      </trkpt>
      <trkpt lat="45.74189" lon="4.82774">
        <ele>162</ele>
        <time>2016-09-28T06:29:36Z</time>
      </trkpt>
      <trkpt lat="45.74202" lon="4.82783">
        <ele>165</ele>
        <time>2016-09-28T06:29:43Z</time>
      </trkpt>
      <trkpt lat="45.74218" lon="4.82799">
        <ele>164</ele>
        <time>2016-09-28T06:29:55Z</time>
      </trkpt>
      <trkpt lat="45.74243" lon="4.82824">
        <ele>161</ele>
        <time>2016-09-28T06:30:12Z</time>
      </trkpt>
      <trkpt lat="45.74253" lon="4.82832">
        <ele>162</ele>
        <time>2016-09-28T06:30:19Z</time>
      </trkpt>
      <trkpt lat="45.74265" lon="4.82842">
        <ele>165</ele>
        <time>2016-09-28T06:30:27Z</time>
      </trkpt>
      <trkpt lat="45.74297" lon="4.8287">
        <ele>163</ele>
        <time>2016-09-28T06:30:48Z</time>
      </trkpt>
      <trkpt lat="45.7431" lon="4.82877">
        <ele>165</ele>
        <time>2016-09-28T06:30:55Z</time>
      </trkpt>
      <trkpt lat="45.74315" lon="4.82885">
        <ele>159</ele>
        <time>2016-09-28T06:31:00Z</time>
      </trkpt>
      <trkpt lat="45.74332" lon="4.829">
        <ele>164</ele>
        <time>2016-09-28T06:31:12Z</time>
      </trkpt>
      <trkpt lat="45.74354" lon="4.82912">
        <ele>167</ele>
        <time>2016-09-28T06:31:25Z</time>
      </trkpt>
      <trkpt lat="45.74378" lon="4.82936">
        <ele>164</ele>
        <time>2016-09-28T06:31:41Z</time>
      </trkpt>
      <trkpt lat="45.74382" lon="4.8294">
        <ele>163</ele>
        <time>2016-09-28T06:31:44Z</time>
      </trkpt>
      <trkpt lat="45.74404" lon="4.8296">
        <ele>160</ele>
        <time>2016-09-28T06:31:59Z</time>
      </trkpt>
      <trkpt lat="45.74414" lon="4.82972">
        <ele>159</ele>
        <time>2016-09-28T06:32:06Z</time>
      </trkpt>
      <trkpt lat="45.74433" lon="4.82988">
        <ele>158</ele>
        <time>2016-09-28T06:32:19Z</time>
      </trkpt>
      <trkpt lat="45.7445" lon="4.83001">
        <ele>163</ele>
        <time>2016-09-28T06:32:30Z</time>
      </trkpt>
      <trkpt lat="45.74463" lon="4.83013">
        <ele>164</ele>
        <time>2016-09-28T06:32:39Z</time>
      </trkpt>
      <trkpt lat="45.74478" lon="4.83032">
        <ele>164</ele>
        <time>2016-09-28T06:32:51Z</time>
      </trkpt>
      <trkpt lat="45.74499" lon="4.83049">
        <ele>169</ele>
        <time>2016-09-28T06:33:04Z</time>
      </trkpt>
      <trkpt lat="45.74512" lon="4.83061">
        <ele>172</ele>
        <time>2016-09-28T06:33:12Z</time>
      </trkpt>
      <trkpt lat="45.74525" lon="4.83079">
        <ele>169</ele>
        <time>2016-09-28T06:33:23Z</time>
      </trkpt>
      <trkpt lat="45.74541" lon="4.83098">
        <ele>169</ele>
        <time>2016-09-28T06:33:34Z</time>
      </trkpt>
      <trkpt lat="45.74574" lon="4.83128">
        <ele>178</ele>
        <time>2016-09-28T06:33:54Z</time>
      </trkpt>
      <trkpt lat="45.74583" lon="4.83141">
        <ele>174</ele>
        <time>2016-09-28T06:34:01Z</time>
      </trkpt>
      <trkpt lat="45.74592" lon="4.83155">
        <ele>171</ele>
        <time>2016-09-28T06:34:09Z</time>
      </trkpt>
      <trkpt lat="45.74603" lon="4.83161">
        <ele>170</ele>
        <time>2016-09-28T06:34:18Z</time>
      </trkpt>
      <trkpt lat="45.74633" lon="4.83184">
        <ele>163</ele>
        <time>2016-09-28T06:34:38Z</time>
      </trkpt>
      <trkpt lat="45.74638" lon="4.83189">
        <ele>163</ele>
        <time>2016-09-28T06:34:41Z</time>
      </trkpt>
      <trkpt lat="45.74658" lon="4.83203">
        <ele>161</ele>
        <time>2016-09-28T06:34:52Z</time>
      </trkpt>
      <trkpt lat="45.74683" lon="4.83229">
        <ele>157</ele>
        <time>2016-09-28T06:35:11Z</time>
      </trkpt>
      <trkpt lat="45.74698" lon="4.83239">
        <ele>162</ele>
        <time>2016-09-28T06:35:19Z</time>
      </trkpt>
      <trkpt lat="45.74708" lon="4.83247">
        <ele>164</ele>
        <time>2016-09-28T06:35:25Z</time>
      </trkpt>
      <trkpt lat="45.74734" lon="4.83264">
        <ele>168</ele>
        <time>2016-09-28T06:35:42Z</time>
      </trkpt>
      <trkpt lat="45.74742" lon="4.83269">
        <ele>165</ele>
        <time>2016-09-28T06:35:47Z</time>
      </trkpt>
      <trkpt lat="45.74756" lon="4.83282">
        <ele>160</ele>
        <time>2016-09-28T06:35:58Z</time>
      </trkpt>
      <trkpt lat="45.74785" lon="4.83303">
        <ele>163</ele>
        <time>2016-09-28T06:36:15Z</time>
      </trkpt>
      <trkpt lat="45.74794" lon="4.83309">
        <ele>163</ele>
        <time>2016-09-28T06:36:20Z</time>
      </trkpt>
      <trkpt lat="45.74822" lon="4.83337">
        <ele>167</ele>
        <time>2016-09-28T06:36:41Z</time>
      </trkpt>
      <trkpt lat="45.74823" lon="4.83338">
        <ele>165</ele>
        <time>2016-09-28T06:36:42Z</time>
      </trkpt>
      <trkpt lat="45.74842" lon="4.83349">
        <ele>167</ele>
        <time>2016-09-28T06:36:53Z</time>
      </trkpt>
      <trkpt lat="45.74861" lon="4.83361">
        <ele>169</ele>
        <time>2016-09-28T06:37:04Z</time>
      </trkpt>
      <trkpt lat="45.74882" lon="4.83373">
        <ele>167</ele>
        <time>2016-09-28T06:37:17Z</time>
      </trkpt>
      <trkpt lat="45.74912" lon="4.83399">
        <ele>162</ele>
        <time>2016-09-28T06:37:35Z</time>
      </trkpt>
      <trkpt lat="45.74915" lon="4.83403">
        <ele>161</ele>
        <time>2016-09-28T06:37:37Z</time>
      </trkpt>
      <trkpt lat="45.74945" lon="4.8343">
        <ele>161</ele>
        <time>2016-09-28T06:37:56Z</time>
      </trkpt>
      <trkpt lat="45.74952" lon="4.83435">
        <ele>162</ele>
        <time>2016-09-28T06:38:01Z</time>
      </trkpt>
      <trkpt lat="45.74973" lon="4.8345">
        <ele>165</ele>
        <time>2016-09-28T06:38:15Z</time>
      </trkpt>
      <trkpt lat="45.74983" lon="4.83459">
        <ele>165</ele>
        <time>2016-09-28T06:38:22Z</time>
      </trkpt>
      <trkpt lat="45.74993" lon="4.83484">
        <ele>167</ele>
        <time>2016-09-28T06:38:33Z</time>
      </trkpt>
      <trkpt lat="45.75005" lon="4.83501">
        <ele>167</ele>
        <time>2016-09-28T06:38:43Z</time>
      </trkpt>
      <trkpt lat="45.75039" lon="4.83535">
        <ele>164</ele>
        <time>2016-09-28T06:39:06Z</time>
      </trkpt>
      <trkpt lat="45.7504" lon="4.83536">
        <ele>165</ele>
        <time>2016-09-28T06:39:07Z</time>
      </trkpt>
      <trkpt lat="45.75055" lon="4.83551">
        <ele>166</ele>
        <time>2016-09-28T06:39:18Z</time>
      </trkpt>
      <trkpt lat="45.75085" lon="4.8358">
        <ele>167</ele>
        <time>2016-09-28T06:39:38Z</time>
      </trkpt>
      <trkpt lat="45.75088" lon="4.83582">
        <ele>168</ele>
        <time>2016-09-28T06:39:40Z</time>
      </trkpt>
      <trkpt lat="45.75116" lon="4.83608">
        <ele>167</ele>
        <time>2016-09-28T06:40:00Z</time>
      </trkpt>
      <trkpt lat="45.75129" lon="4.83624">
        <ele>168</ele>
        <time>2016-09-28T06:40:10Z</time>
      </trkpt>
      <trkpt lat="45.75133" lon="4.83632">
        <ele>168</ele>
        <time>2016-09-28T06:40:14Z</time>
      </trkpt>
      <trkpt lat="45.75143" lon="4.83644">
        <ele>167</ele>
        <time>2016-09-28T06:40:24Z</time>
      </trkpt>
      <trkpt lat="45.75171" lon="4.83662">
        <ele>171</ele>
        <time>2016-09-28T06:40:42Z</time>
      </trkpt>
      <trkpt lat="45.75193" lon="4.83678">
        <ele>170</ele>
        <time>2016-09-28T06:40:54Z</time>
      </trkpt>
      <trkpt lat="45.75212" lon="4.83674">
        <ele>170</ele>
        <time>2016-09-28T06:41:05Z</time>
      </trkpt>
      <trkpt lat="45.75215" lon="4.83665">
        <ele>170</ele>
        <time>2016-09-28T06:41:09Z</time>
      </trkpt>
      <trkpt lat="45.75225" lon="4.83639">
        <ele>170</ele>
        <time>2016-09-28T06:41:21Z</time>
      </trkpt>
      <trkpt lat="45.75238" lon="4.83605">
        <ele>169</ele>
        <time>2016-09-28T06:41:37Z</time>
      </trkpt>
      <trkpt lat="45.75247" lon="4.83576">
        <ele>168</ele>
        <time>2016-09-28T06:41:50Z</time>
      </trkpt>
      <trkpt lat="45.75249" lon="4.83572">
        <ele>168</ele>
        <time>2016-09-28T06:41:52Z</time>
      </trkpt>
      <trkpt lat="45.75262" lon="4.8354">
        <ele>168</ele>
        <time>2016-09-28T06:42:07Z</time>
      </trkpt>
      <trkpt lat="45.75269" lon="4.83523">
        <ele>168</ele>
        <time>2016-09-28T06:42:15Z</time>
      </trkpt>
      <trkpt lat="45.75276" lon="4.83501">
        <ele>167</ele>
        <time>2016-09-28T06:42:25Z</time>
      </trkpt>
      <trkpt lat="45.75289" lon="4.83471">
        <ele>165</ele>
        <time>2016-09-28T06:42:39Z</time>
      </trkpt>
      <trkpt lat="45.75296" lon="4.83454">
        <ele>164</ele>
        <time>2016-09-28T06:42:47Z</time>
      </trkpt>
      <trkpt lat="45.75307" lon="4.8343">
        <ele>167</ele>
        <time>2016-09-28T06:42:58Z</time>
      </trkpt>
      <trkpt lat="45.75315" lon="4.83417">
        <ele>167</ele>
        <time>2016-09-28T06:43:09Z</time>
      </trkpt>
      <trkpt lat="45.75313" lon="4.83409">
        <ele>170</ele>
        <time>2016-09-28T06:43:28Z</time>
      </trkpt>
      <trkpt lat="45.75313" lon="4.83409">
        <ele>171</ele>
        <time>2016-09-28T06:43:31Z</time>
      </trkpt>
      <trkpt lat="45.75313" lon="4.83408">
        <ele>172</ele>
        <time>2016-09-28T06:43:50Z</time>
      </trkpt>
      <trkpt lat="45.75313" lon="4.83408">
        <ele>172</ele>
        <time>2016-09-28T06:43:53Z</time>
      </trkpt>
      <trkpt lat="45.75313" lon="4.83408">
        <ele>172</ele>
        <time>2016-09-28T06:44:04Z</time>
      </trkpt>
      <trkpt lat="45.7532" lon="4.83389">
        <ele>169</ele>
        <time>2016-09-28T06:44:17Z</time>
      </trkpt>
      <trkpt lat="45.75334" lon="4.83362">
        <ele>167</ele>
        <time>2016-09-28T06:44:29Z</time>
      </trkpt>
      <trkpt lat="45.75347" lon="4.83346">
        <ele>163</ele>
        <time>2016-09-28T06:44:39Z</time>
      </trkpt>
      <trkpt lat="45.75355" lon="4.83325">
        <ele>164</ele>
        <time>2016-09-28T06:44:48Z</time>
      </trkpt>
      <trkpt lat="45.75371" lon="4.83296">
        <ele>168</ele>
        <time>2016-09-28T06:45:03Z</time>
      </trkpt>
      <trkpt lat="45.7537" lon="4.83273">
        <ele>165</ele>
        <time>2016-09-28T06:45:10Z</time>
      </trkpt>
      <trkpt lat="45.75381" lon="4.83246">
        <ele>165</ele>
        <time>2016-09-28T06:45:21Z</time>
      </trkpt>
      <trkpt lat="45.75405" lon="4.83207">
        <ele>167</ele>
        <time>2016-09-28T06:45:42Z</time>
      </trkpt>
      <trkpt lat="45.75404" lon="4.83198">
        <ele>163</ele>
        <time>2016-09-28T06:45:47Z</time>
      </trkpt>
      <trkpt lat="45.75408" lon="4.83162">
        <ele>164</ele>
        <time>2016-09-28T06:46:02Z</time>
      </trkpt>
      <trkpt lat="45.7541" lon="4.83154">
        <ele>165</ele>
        <time>2016-09-28T06:46:05Z</time>
      </trkpt>
      <trkpt lat="45.75428" lon="4.83113">
        <ele>164</ele>
        <time>2016-09-28T06:46:24Z</time>
      </trkpt>
      <trkpt lat="45.7544" lon="4.83089">
        <ele>167</ele>
        <time>2016-09-28T06:46:36Z</time>
      </trkpt>
      <trkpt lat="45.75437" lon="4.83092">
        <ele>171</ele>
        <time>2016-09-28T06:46:48Z</time>
      </trkpt>
      <trkpt lat="45.75436" lon="4.83092">
        <ele>171</ele>
        <time>2016-09-28T06:46:50Z</time>
      </trkpt>
      <trkpt lat="45.75436" lon="4.83091">
        <ele>170</ele>
        <time>2016-09-28T06:47:01Z</time>
      </trkpt>
      <trkpt lat="45.75433" lon="4.83016">
        <ele>169</ele>
        <time>2016-09-28T06:47:18Z</time>
      </trkpt>
      <trkpt lat="45.75444" lon="4.82998">
        <ele>172</ele>
        <time>2016-09-28T06:47:42Z</time>
      </trkpt>
      <trkpt lat="45.75438" lon="4.82991">
        <ele>171</ele>
        <time>2016-09-28T06:47:45Z</time>
      </trkpt>
      <trkpt lat="45.75387" lon="4.82946">
        <ele>164</ele>
        <time>2016-09-28T06:48:26Z</time>
      </trkpt>
      <trkpt lat="45.75399" lon="4.82932">
        <ele>164</ele>
        <time>2016-09-28T06:48:35Z</time>
      </trkpt>
      <trkpt lat="45.75395" lon="4.82916">
        <ele>171</ele>
        <time>2016-09-28T06:48:47Z</time>
      </trkpt>
    </trkseg>
  </trk>
</gpx>